Time;durP1;ratioP1;P1;durP2;ratioP2;P2;SDS_P1;SDS_P2;PMS_P1;PMS_P2;Temp;Humidity;BMP_temperature;BMP_pressure;BME280_temperature;BME280_humidity;BME280_pressure;Samples;Min_cycle;Max_cycle;Signal;HPM_P1;HPM_P2
2024/01/05 00:02:12;;;;;;;;;;;6.90;88.30;;;;;;5092960;28;19956;-68
2024/01/05 00:04:45;;;;;;;;;;;6.90;88.30;;;;;;5097478;28;19935;-69
2024/01/05 00:07:18;;;;;;;;;;;6.90;88.20;;;;;;5096149;28;19928;-69
2024/01/05 00:09:52;;;;;;;;;;;6.80;88.30;;;;;;5092155;28;19938;-68
2024/01/05 00:12:26;;;;;;;;;;;6.80;88.30;;;;;;5094746;28;19956;-68
2024/01/05 00:14:59;;;;;;;;;;;6.80;88.40;;;;;;5095789;28;19974;-67
2024/01/05 00:17:32;;;;;;;;;;;6.70;88.50;;;;;;5097931;28;19932;-68
2024/01/05 00:20:06;;;;;;;;;;;6.70;88.60;;;;;;5098790;28;20375;-67
2024/01/05 00:22:46;;;;;;;;;;;6.80;88.70;;;;;;5095633;28;19962;-67
2024/01/05 00:25:22;;;;;;;;;;;6.80;88.60;;;;;;5097769;28;20336;-67
2024/01/05 00:27:55;;;;;;;;;;;6.80;88.60;;;;;;5097666;28;19925;-67
2024/01/05 00:30:34;;;;;;;;;;;6.80;88.60;;;;;;5101059;28;20413;-68
2024/01/05 00:33:08;;;;;;;;;;;6.80;88.60;;;;;;5098686;28;19973;-68
2024/01/05 00:35:41;;;;;;;;;;;6.80;88.60;;;;;;5095349;28;19924;-67
2024/01/05 00:38:14;;;;;;;;;;;6.80;88.70;;;;;;5098827;28;19928;-67
2024/01/05 00:40:48;;;;;;;;;;;6.70;88.70;;;;;;5094260;28;19924;-67
2024/01/05 00:43:22;;;;;;;;;;;6.80;88.70;;;;;;5096911;28;19929;-66
2024/01/05 00:45:55;;;;;;;;;;;6.70;88.70;;;;;;5100214;28;20015;-68
2024/01/05 00:48:28;;;;;;;;;;;6.80;88.70;;;;;;5098400;28;19923;-67
2024/01/05 00:51:01;;;;;;;;;;;6.80;88.70;;;;;;5095119;28;19923;-68
2024/01/05 00:53:34;;;;;;;;;;;6.80;88.70;;;;;;5095207;28;19981;-69
2024/01/05 00:56:08;;;;;;;;;;;6.80;88.70;;;;;;5100388;28;19995;-68
2024/01/05 01:09:29;;;;;;;;;;;6.70;88.70;;;;;;5065557;28;19966;-74
2024/01/05 01:12:03;;;;;;;;;;;6.70;88.70;;;;;;5088259;28;19939;-73
2024/01/05 01:14:37;;;;;;;;;;;6.70;88.60;;;;;;5098483;28;19924;-71
2024/01/05 01:17:10;;;;;;;;;;;6.70;88.70;;;;;;5096634;28;20301;-71
2024/01/05 01:19:43;;;;;;;;;;;6.70;88.60;;;;;;5092604;28;19924;-72
2024/01/05 01:22:16;;;;;;;;;;;6.70;88.60;;;;;;5097450;28;19924;-72
2024/01/05 01:24:49;;;;;;;;;;;6.70;88.70;;;;;;5096683;28;19939;-73
2024/01/05 01:27:23;;;;;;;;;;;6.70;88.70;;;;;;5096201;28;19935;-73
2024/01/05 01:29:57;;;;;;;;;;;6.70;88.70;;;;;;5095436;28;19990;-73
2024/01/05 01:32:23;;;;;;;;;;;6.70;88.90;;;;;;5096350;28;19924;-73
2024/01/05 01:34:57;;;;;;;;;;;6.70;89.00;;;;;;5098332;28;19978;-73
2024/01/05 01:37:30;;;;;;;;;;;6.70;89.10;;;;;;5095333;28;20011;-73
2024/01/05 01:40:04;;;;;;;;;;;6.70;89.00;;;;;;5094556;28;19951;-73
2024/01/05 01:42:43;;;;;;;;;;;6.70;89.10;;;;;;5097290;28;20022;-72
2024/01/05 01:45:17;;;;;;;;;;;6.70;89.20;;;;;;5096245;28;19930;-73
2024/01/05 01:47:50;;;;;;;;;;;6.70;89.20;;;;;;5095926;28;19924;-72
2024/01/05 01:50:25;;;;;;;;;;;6.70;89.30;;;;;;5097045;28;19928;-73
2024/01/05 01:52:58;;;;;;;;;;;6.70;89.30;;;;;;5094900;28;19935;-73
2024/01/05 01:55:31;;;;;;;;;;;6.70;89.40;;;;;;5094770;28;19936;-73
2024/01/05 01:58:05;;;;;;;;;;;6.80;89.30;;;;;;5096446;28;19935;-73
2024/01/05 02:00:39;;;;;;;;;;;6.70;89.10;;;;;;5097190;28;19964;-73
2024/01/05 02:03:12;;;;;;;;;;;6.70;89.30;;;;;;5095554;28;19931;-72
2024/01/05 02:05:47;;;;;;;;;;;6.70;89.40;;;;;;5096598;28;19939;-72
2024/01/05 02:08:20;;;;;;;;;;;6.70;89.30;;;;;;5092978;28;19963;-73
2024/01/05 02:10:53;;;;;;;;;;;6.70;89.40;;;;;;5095632;28;19931;-73
2024/01/05 02:13:28;;;;;;;;;;;6.70;89.40;;;;;;5095771;28;19924;-73
2024/01/05 02:16:02;;;;;;;;;;;6.70;89.40;;;;;;5095753;28;20024;-67
2024/01/05 02:18:35;;;;;;;;;;;6.70;89.50;;;;;;5095117;28;19946;-68
2024/01/05 02:21:09;;;;;;;;;;;6.70;89.60;;;;;;5098211;28;19924;-67
2024/01/05 02:23:44;;;;;;;;;;;6.70;89.60;;;;;;5073537;28;20408;-68
2024/01/05 02:26:18;;;;;;;;;;;6.70;89.50;;;;;;5103679;28;19924;-67
2024/01/05 02:28:51;;;;;;;;;;;6.70;89.50;;;;;;5092006;28;19924;-67
2024/01/05 02:31:24;;;;;;;;;;;6.70;89.40;;;;;;5096768;28;20404;-67
2024/01/05 02:33:57;;;;;;;;;;;6.70;89.50;;;;;;5097188;28;20372;-67
2024/01/05 02:36:30;;;;;;;;;;;6.70;89.50;;;;;;5080532;28;20014;-68
2024/01/05 02:39:04;;;;;;;;;;;6.70;89.40;;;;;;5099452;28;20022;-68
2024/01/05 02:41:38;;;;;;;;;;;6.70;89.60;;;;;;5095169;28;19924;-66
2024/01/05 02:44:11;;;;;;;;;;;6.70;89.60;;;;;;5101176;28;19947;-67
2024/01/05 02:46:44;;;;;;;;;;;6.70;89.70;;;;;;5099633;28;19949;-68
2024/01/05 02:49:20;;;;;;;;;;;6.70;89.70;;;;;;5099956;28;19923;-67
2024/01/05 02:51:53;;;;;;;;;;;6.70;89.50;;;;;;5099772;28;20340;-68
2024/01/05 02:54:28;;;;;;;;;;;6.80;89.60;;;;;;5099924;28;19950;-68
2024/01/05 02:57:01;;;;;;;;;;;6.80;89.60;;;;;;5099121;28;19928;-68
2024/01/05 02:59:34;;;;;;;;;;;6.80;89.60;;;;;;5094613;28;19927;-67
2024/01/05 03:02:08;;;;;;;;;;;6.80;89.70;;;;;;5101018;28;19924;-68
2024/01/05 03:04:41;;;;;;;;;;;6.80;89.60;;;;;;5098308;28;19924;-68
2024/01/05 03:07:15;;;;;;;;;;;6.80;89.40;;;;;;5098446;28;20022;-67
2024/01/05 03:09:49;;;;;;;;;;;6.80;89.60;;;;;;5100295;28;20439;-67
2024/01/05 03:12:23;;;;;;;;;;;6.80;89.60;;;;;;5100126;28;19933;-67
2024/01/05 03:14:56;;;;;;;;;;;6.90;89.50;;;;;;5080157;28;19928;-67
2024/01/05 03:17:29;;;;;;;;;;;6.90;89.60;;;;;;5098914;28;19939;-67
2024/01/05 03:20:10;;;;;;;;;;;6.80;89.80;;;;;;5096372;28;19963;-68
2024/01/05 03:22:43;;;;;;;;;;;6.80;89.80;;;;;;5097387;28;19935;-67
2024/01/05 03:25:17;;;;;;;;;;;6.80;89.80;;;;;;5096465;28;19932;-66
2024/01/05 03:27:51;;;;;;;;;;;6.80;89.70;;;;;;5098683;28;20453;-68
2024/01/05 03:30:25;;;;;;;;;;;6.90;89.70;;;;;;5098135;28;20378;-67
2024/01/05 03:32:58;;;;;;;;;;;6.90;89.70;;;;;;5099711;28;20386;-66
2024/01/05 03:35:31;;;;;;;;;;;6.90;89.80;;;;;;5099453;28;20046;-67
2024/01/05 03:38:04;;;;;;;;;;;6.90;89.70;;;;;;5097905;28;19928;-68
2024/01/05 03:40:38;;;;;;;;;;;6.90;89.80;;;;;;5099378;28;19935;-68
2024/01/05 03:43:12;;;;;;;;;;;6.90;89.80;;;;;;5098131;28;20014;-69
2024/01/05 03:45:39;;;;;;;;;;;6.90;89.60;;;;;;5099885;28;19924;-69
2024/01/05 03:48:12;;;;;;;;;;;6.90;89.80;;;;;;5105484;28;20387;-73
2024/01/05 03:50:45;;;;;;;;;;;6.90;89.70;;;;;;5099073;28;19924;-69
2024/01/05 03:53:18;;;;;;;;;;;6.90;89.70;;;;;;5098898;28;20297;-68
2024/01/05 03:55:52;;;;;;;;;;;6.90;89.70;;;;;;5098177;28;19931;-69
2024/01/05 03:58:27;;;;;;;;;;;6.90;89.80;;;;;;5099387;28;20359;-66
2024/01/05 04:01:01;;;;;;;;;;;6.90;89.80;;;;;;5099760;28;19953;-68
2024/01/05 04:03:34;;;;;;;;;;;6.90;89.70;;;;;;5097594;28;19928;-69
2024/01/05 04:06:01;;;;;;;;;;;6.90;89.70;;;;;;5096754;28;19924;-66
2024/01/05 04:08:34;;;;;;;;;;;6.90;89.80;;;;;;5096948;28;19928;-66
2024/01/05 04:11:08;;;;;;;;;;;6.90;89.70;;;;;;5100124;28;19932;-67
2024/01/05 04:13:42;;;;;;;;;;;6.90;89.90;;;;;;5097068;28;19969;-68
2024/01/05 04:16:15;;;;;;;;;;;6.90;89.70;;;;;;5099255;28;19924;-68
2024/01/05 04:18:48;;;;;;;;;;;7.00;89.70;;;;;;5095272;28;20015;-68
2024/01/05 04:21:21;;;;;;;;;;;7.00;89.70;;;;;;5099820;28;19934;-69
2024/01/05 04:23:55;;;;;;;;;;;7.00;89.70;;;;;;5100015;28;19932;-68
2024/01/05 04:26:29;;;;;;;;;;;6.90;89.80;;;;;;5108894;28;19949;-67
2024/01/05 04:29:03;;;;;;;;;;;6.90;90.00;;;;;;5105788;28;19932;-68
2024/01/05 04:31:36;;;;;;;;;;;6.90;89.90;;;;;;5107581;28;19938;-68
2024/01/05 04:34:09;;;;;;;;;;;6.90;90.00;;;;;;5096795;28;19928;-65
2024/01/05 04:36:42;;;;;;;;;;;6.90;90.10;;;;;;5103516;28;19955;-61
2024/01/05 04:39:16;;;;;;;;;;;6.90;90.20;;;;;;5106280;28;19930;-61
2024/01/05 04:41:50;;;;;;;;;;;6.90;90.10;;;;;;5106437;28;19967;-61
2024/01/05 04:44:24;;;;;;;;;;;6.90;90.00;;;;;;5108903;28;19924;-61
2024/01/05 04:46:57;;;;;;;;;;;6.90;89.90;;;;;;5106211;28;20017;-61
2024/01/05 04:49:36;;;;;;;;;;;7.00;89.90;;;;;;5106554;28;19924;-61
2024/01/05 04:52:10;;;;;;;;;;;7.00;89.80;;;;;;5105362;28;19924;-60
2024/01/05 04:54:43;;;;;;;;;;;7.00;89.80;;;;;;5106497;28;19930;-61
2024/01/05 04:57:17;;;;;;;;;;;7.00;89.80;;;;;;5106737;28;19967;-60
2024/01/05 04:59:51;;;;;;;;;;;7.00;89.80;;;;;;5106276;28;19924;-61
2024/01/05 05:02:24;;;;;;;;;;;7.00;89.70;;;;;;5107781;28;19923;-60
2024/01/05 05:04:57;;;;;;;;;;;7.00;89.70;;;;;;5106162;28;19930;-61
2024/01/05 05:07:30;;;;;;;;;;;7.00;89.90;;;;;;5108435;28;19978;-61
2024/01/05 05:10:03;;;;;;;;;;;7.00;89.80;;;;;;5115032;28;19928;-60
2024/01/05 05:12:31;;;;;;;;;;;6.90;89.90;;;;;;5110243;28;19977;-61
2024/01/05 05:15:06;;;;;;;;;;;6.90;90.00;;;;;;5106967;28;20560;-60
2024/01/05 05:17:39;;;;;;;;;;;6.90;89.90;;;;;;5107879;28;19930;-62
2024/01/05 05:20:12;;;;;;;;;;;7.00;89.80;;;;;;5106647;28;20297;-60
2024/01/05 05:22:45;;;;;;;;;;;7.00;89.80;;;;;;5107294;28;20305;-60
2024/01/05 05:25:18;;;;;;;;;;;7.00;89.90;;;;;;5102769;28;19930;-60
2024/01/05 05:27:52;;;;;;;;;;;7.00;89.80;;;;;;5105551;28;19978;-60
2024/01/05 05:30:26;;;;;;;;;;;6.90;89.90;;;;;;5106519;28;19981;-61
2024/01/05 05:32:59;;;;;;;;;;;7.00;89.70;;;;;;5106429;28;19989;-60
2024/01/05 05:35:33;;;;;;;;;;;6.90;90.00;;;;;;5104651;28;20030;-61
2024/01/05 05:38:06;;;;;;;;;;;6.90;90.00;;;;;;5096580;28;20010;-61
2024/01/05 05:40:39;;;;;;;;;;;7.00;89.90;;;;;;5104700;28;19924;-60
2024/01/05 05:43:13;;;;;;;;;;;7.10;89.80;;;;;;5101631;28;20015;-61
2024/01/05 05:45:47;;;;;;;;;;;7.10;90.00;;;;;;5097826;28;19932;-62
2024/01/05 05:48:20;;;;;;;;;;;7.00;89.90;;;;;;5104366;28;19950;-63
2024/01/05 05:50:53;;;;;;;;;;;7.00;89.80;;;;;;5104658;28;21657;-62
2024/01/05 05:53:26;;;;;;;;;;;7.00;89.80;;;;;;5104983;28;19935;-62
2024/01/05 05:55:59;;;;;;;;;;;7.00;89.70;;;;;;5105766;28;20027;-62
2024/01/05 05:58:33;;;;;;;;;;;7.00;89.80;;;;;;5106391;28;19928;-62
2024/01/05 06:01:07;;;;;;;;;;;7.10;89.60;;;;;;5102804;28;19930;-63
2024/01/05 06:03:40;;;;;;;;;;;7.00;89.70;;;;;;5105124;28;19934;-63
2024/01/05 06:06:16;;;;;;;;;;;7.00;89.70;;;;;;5108571;28;19930;-63
2024/01/05 06:08:49;;;;;;;;;;;7.10;89.90;;;;;;5110185;28;20503;-63
2024/01/05 06:11:26;;;;;;;;;;;7.10;89.80;;;;;;5108453;28;19928;-62
2024/01/05 06:14:04;;;;;;;;;;;7.00;89.80;;;;;;5109690;28;19935;-63
2024/01/05 06:16:37;;;;;;;;;;;7.10;89.80;;;;;;5097754;28;20008;-62
2024/01/05 06:19:10;;;;;;;;;;;7.10;89.90;;;;;;5109019;28;20022;-64
2024/01/05 06:21:43;;;;;;;;;;;7.10;89.80;;;;;;5109569;28;19928;-62
2024/01/05 06:24:16;;;;;;;;;;;7.10;89.80;;;;;;5105058;28;20272;-63
2024/01/05 06:26:49;;;;;;;;;;;7.10;89.80;;;;;;5101655;28;20307;-63
2024/01/05 06:29:23;;;;;;;;;;;7.10;89.80;;;;;;5104462;28;20586;-62
2024/01/05 06:31:57;;;;;;;;;;;7.00;89.80;;;;;;5097179;28;19928;-63
2024/01/05 06:34:30;;;;;;;;;;;7.00;89.90;;;;;;5100938;28;19928;-63
2024/01/05 06:37:03;;;;;;;;;;;7.00;90.00;;;;;;5099420;28;19955;-61
2024/01/05 06:39:36;;;;;;;;;;;7.00;90.10;;;;;;5100398;28;19924;-63
2024/01/05 06:42:09;;;;;;;;;;;7.00;89.90;;;;;;5100448;28;19954;-61
2024/01/05 06:44:43;;;;;;;;;;;7.10;89.90;;;;;;5099482;28;19927;-62
2024/01/05 06:47:17;;;;;;;;;;;7.00;89.90;;;;;;5098222;28;20352;-63
2024/01/05 06:49:50;;;;;;;;;;;7.10;90.00;;;;;;5096428;28;19924;-63
2024/01/05 06:52:23;;;;;;;;;;;7.00;89.90;;;;;;5099153;28;19924;-61
2024/01/05 06:54:56;;;;;;;;;;;7.00;89.90;;;;;;5097216;28;19924;-63
2024/01/05 06:57:31;;;;;;;;;;;7.10;89.90;;;;;;5101213;28;20463;-63
2024/01/05 07:00:08;;;;;;;;;;;7.10;89.80;;;;;;5098399;28;19931;-63
2024/01/05 07:02:42;;;;;;;;;;;7.10;89.80;;;;;;5097464;28;19928;-63
2024/01/05 07:05:15;;;;;;;;;;;7.10;89.90;;;;;;5096808;28;19977;-64
2024/01/05 07:07:48;;;;;;;;;;;7.10;89.80;;;;;;5097173;28;19934;-63
2024/01/05 07:10:21;;;;;;;;;;;7.10;89.80;;;;;;5099561;28;20377;-63
2024/01/05 07:13:09;;;;;;;;;;;7.10;89.90;;;;;;5097214;28;26518;-64
2024/01/05 07:15:49;;;;;;;;;;;7.10;90.00;;;;;;5100402;28;19989;-64
2024/01/05 07:18:23;;;;;;;;;;;7.10;90.00;;;;;;5100307;28;19928;-64
2024/01/05 07:20:56;;;;;;;;;;;7.10;89.90;;;;;;5094819;28;20461;-63
2024/01/05 07:23:29;;;;;;;;;;;7.10;89.90;;;;;;5101647;28;20015;-63
2024/01/05 07:26:02;;;;;;;;;;;7.10;89.80;;;;;;5098763;28;19924;-62
2024/01/05 07:28:35;;;;;;;;;;;7.10;89.70;;;;;;5101157;28;19931;-64
2024/01/05 07:31:10;;;;;;;;;;;7.10;89.80;;;;;;5097457;28;19972;-62
2024/01/05 07:33:43;;;;;;;;;;;7.10;89.80;;;;;;5098791;28;20436;-64
2024/01/05 07:36:16;;;;;;;;;;;7.20;89.80;;;;;;5099391;28;19955;-63
2024/01/05 07:38:49;;;;;;;;;;;7.10;89.80;;;;;;5097232;28;19935;-64
2024/01/05 07:41:22;;;;;;;;;;;7.10;89.80;;;;;;5098591;28;19931;-63
2024/01/05 07:43:55;;;;;;;;;;;7.10;89.80;;;;;;5099803;28;20390;-64
2024/01/05 07:46:26;;;;;;;;;;;7.10;89.80;;;;;;5098461;28;19961;-63
2024/01/05 07:49:00;;;;;;;;;;;7.20;89.70;;;;;;5103284;28;19967;-63
2024/01/05 07:51:33;;;;;;;;;;;7.20;89.90;;;;;;5102609;28;19927;-64
2024/01/05 07:54:06;;;;;;;;;;;7.20;89.70;;;;;;5097447;28;19935;-64
2024/01/05 07:56:39;;;;;;;;;;;7.20;89.80;;;;;;5095417;28;19931;-63
2024/01/05 07:59:12;;;;;;;;;;;7.20;89.80;;;;;;5098896;28;20014;-63
2024/01/05 08:01:51;;;;;;;;;;;7.10;89.80;;;;;;5100216;28;19996;-64
2024/01/05 08:04:24;;;;;;;;;;;7.10;89.70;;;;;;5092452;28;19928;-66
2024/01/05 08:06:57;;;;;;;;;;;7.10;89.90;;;;;;5094962;28;19927;-66
2024/01/05 08:09:30;;;;;;;;;;;7.20;89.80;;;;;;5098726;28;19934;-66
2024/01/05 08:12:02;;;;;;;;;;;7.20;90.00;;;;;;5094572;28;20401;-67
2024/01/05 08:14:35;;;;;;;;;;;7.20;89.80;;;;;;5099564;28;19920;-67
2024/01/05 08:17:09;;;;;;;;;;;7.20;89.90;;;;;;5098889;28;19928;-68
2024/01/05 08:19:43;;;;;;;;;;;7.20;90.00;;;;;;5100191;28;19925;-66
2024/01/05 08:22:16;;;;;;;;;;;7.20;89.90;;;;;;5096530;28;19930;-68
2024/01/05 08:24:49;;;;;;;;;;;7.20;90.00;;;;;;5106576;28;19932;-67
2024/01/05 08:27:22;;;;;;;;;;;7.20;90.00;;;;;;5105359;28;19931;-67
2024/01/05 08:29:55;;;;;;;;;;;7.20;90.10;;;;;;5107762;28;19928;-67
2024/01/05 08:32:29;;;;;;;;;;;7.20;89.90;;;;;;5107441;28;19973;-66
2024/01/05 08:35:03;;;;;;;;;;;7.20;90.10;;;;;;5087096;28;19927;-67
2024/01/05 08:37:36;;;;;;;;;;;7.30;90.10;;;;;;5105438;28;20015;-65
2024/01/05 08:40:10;;;;;;;;;;;7.30;89.90;;;;;;5105394;28;19938;-67
2024/01/05 08:42:43;;;;;;;;;;;7.30;90.10;;;;;;5106436;28;19924;-67
2024/01/05 08:45:18;;;;;;;;;;;7.30;89.90;;;;;;5106220;28;19924;-67
2024/01/05 08:47:53;;;;;;;;;;;7.30;90.20;;;;;;5105482;28;20051;-67
2024/01/05 08:50:26;;;;;;;;;;;7.30;90.00;;;;;;5107512;28;19955;-68
2024/01/05 08:52:59;;;;;;;;;;;7.40;90.10;;;;;;5105773;28;19924;-66
2024/01/05 08:55:33;;;;;;;;;;;7.40;90.10;;;;;;5103052;28;19927;-68
2024/01/05 08:58:00;;;;;;;;;;;7.40;90.00;;;;;;5083821;28;19931;-68
2024/01/05 09:00:33;;;;;;;;;;;7.40;89.90;;;;;;5104404;28;20740;-67
2024/01/05 09:03:07;;;;;;;;;;;7.40;90.00;;;;;;5105740;28;20363;-67
2024/01/05 09:05:41;;;;;;;;;;;7.50;90.10;;;;;;5105459;28;19924;-67
2024/01/05 09:08:14;;;;;;;;;;;7.40;90.00;;;;;;5105387;28;19949;-67
2024/01/05 09:10:47;;;;;;;;;;;7.50;90.10;;;;;;5115204;28;19932;-67
2024/01/05 09:13:20;;;;;;;;;;;7.40;90.20;;;;;;5108272;28;20010;-67
2024/01/05 09:15:53;;;;;;;;;;;7.40;90.30;;;;;;5105294;28;20016;-71
2024/01/05 09:18:35;;;;;;;;;;;7.40;90.20;;;;;;5106460;28;19959;-72
2024/01/05 09:21:08;;;;;;;;;;;7.50;90.30;;;;;;5105601;28;20006;-73
2024/01/05 09:23:35;;;;;;;;;;;7.50;90.20;;;;;;5103264;28;19927;-72
2024/01/05 09:26:12;;;;;;;;;;;7.50;90.10;;;;;;5095512;28;19924;-72
2024/01/05 09:28:46;;;;;;;;;;;7.50;90.00;;;;;;5097710;28;20386;-72
2024/01/05 09:31:19;;;;;;;;;;;7.50;89.80;;;;;;5090756;28;19932;-72
2024/01/05 09:33:54;;;;;;;;;;;7.50;90.10;;;;;;5097817;28;20046;-72
2024/01/05 09:36:27;;;;;;;;;;;7.50;89.90;;;;;;5096372;28;20024;-72
2024/01/05 09:39:00;;;;;;;;;;;7.50;90.00;;;;;;5097340;28;20019;-72
2024/01/05 09:41:34;;;;;;;;;;;7.60;90.10;;;;;;5099141;28;19965;-73
2024/01/05 09:44:07;;;;;;;;;;;7.60;90.00;;;;;;5095525;28;19928;-72
2024/01/05 09:46:40;;;;;;;;;;;7.60;90.00;;;;;;5096895;28;19928;-72
2024/01/05 09:49:16;;;;;;;;;;;7.60;89.90;;;;;;5096829;28;19927;-71
2024/01/05 09:51:52;;;;;;;;;;;7.70;90.00;;;;;;5097451;28;19935;-73
2024/01/05 09:54:25;;;;;;;;;;;7.80;90.10;;;;;;5098435;28;19943;-72
2024/01/05 09:56:58;;;;;;;;;;;7.80;90.10;;;;;;5095730;28;19981;-73
2024/01/05 09:59:34;;;;;;;;;;;7.90;90.00;;;;;;5094029;28;19932;-72
2024/01/05 10:02:12;;;;;;;;;;;7.90;90.00;;;;;;5095991;28;20399;-71
2024/01/05 10:04:46;;;;;;;;;;;8.00;89.90;;;;;;5098405;28;20413;-72
2024/01/05 10:07:21;;;;;;;;;;;8.00;90.00;;;;;;5095036;28;19985;-73
2024/01/05 10:10:01;;;;;;;;;;;8.00;90.10;;;;;;5098592;28;19924;-72
2024/01/05 10:12:34;;;;;;;;;;;8.10;90.10;;;;;;5093436;28;19928;-72
2024/01/05 10:15:08;;;;;;;;;;;8.10;90.00;;;;;;5097257;28;19928;-72
2024/01/05 10:17:41;;;;;;;;;;;8.10;90.10;;;;;;5097530;28;20397;-72
2024/01/05 10:20:16;;;;;;;;;;;8.10;90.10;;;;;;5098465;28;19964;-72
2024/01/05 10:22:49;;;;;;;;;;;8.20;90.00;;;;;;5097251;28;19932;-71
2024/01/05 10:25:22;;;;;;;;;;;8.20;89.80;;;;;;5098309;28;19928;-62
2024/01/05 10:27:56;;;;;;;;;;;8.30;89.70;;;;;;5096079;28;20015;-61
2024/01/05 10:30:30;;;;;;;;;;;8.30;89.50;;;;;;5098232;28;19954;-61
2024/01/05 10:33:05;;;;;;;;;;;8.40;89.50;;;;;;5103672;28;19924;-62
2024/01/05 10:35:40;;;;;;;;;;;8.30;89.50;;;;;;5096865;28;19931;-62
2024/01/05 10:38:14;;;;;;;;;;;8.40;89.40;;;;;;5097592;28;19928;-61
2024/01/05 10:40:49;;;;;;;;;;;8.40;89.30;;;;;;5095399;28;19924;-62
2024/01/05 10:43:25;;;;;;;;;;;8.50;89.30;;;;;;5074968;28;19934;-61
2024/01/05 10:45:58;;;;;;;;;;;8.40;89.30;;;;;;5097384;28;19974;-62
2024/01/05 10:48:31;;;;;;;;;;;8.40;89.40;;;;;;5094125;28;19938;-60
2024/01/05 10:51:06;;;;;;;;;;;8.40;89.30;;;;;;5096836;28;19924;-61
2024/01/05 10:53:39;;;;;;;;;;;8.50;89.20;;;;;;5097862;28;19984;-61
2024/01/05 10:56:13;;;;;;;;;;;8.50;89.20;;;;;;5100692;28;19962;-62
2024/01/05 10:58:48;;;;;;;;;;;8.50;89.10;;;;;;5100734;28;19932;-61
2024/01/05 11:01:22;;;;;;;;;;;8.50;88.90;;;;;;5099180;28;20393;-62
2024/01/05 11:03:56;;;;;;;;;;;8.60;88.80;;;;;;5098283;28;20486;-62
2024/01/05 11:06:32;;;;;;;;;;;8.60;88.30;;;;;;5100713;28;19969;-63
2024/01/05 11:09:11;;;;;;;;;;;8.60;87.90;;;;;;5097613;28;20306;-65
2024/01/05 11:11:49;;;;;;;;;;;8.50;87.60;;;;;;5101100;28;20333;-62
2024/01/05 11:14:40;;;;;;;;;;;8.60;87.00;;;;;;5099419;28;19967;-60
2024/01/05 11:17:21;;;;;;;;;;;8.60;86.70;;;;;;5099382;28;20474;-61
2024/01/05 11:20:15;;;;;;;;;;;8.60;86.40;;;;;;5099701;28;19938;-61
2024/01/05 11:22:51;;;;;;;;;;;8.60;85.90;;;;;;5095937;28;19924;-62
2024/01/05 11:25:24;;;;;;;;;;;8.70;85.50;;;;;;5100278;28;19925;-60
2024/01/05 11:27:56;;;;;;;;;;;8.70;85.20;;;;;;5099785;28;20411;-61
2024/01/05 11:30:43;;;;;;;;;;;8.80;84.80;;;;;;5099763;28;19931;-62
2024/01/05 11:33:31;;;;;;;;;;;8.70;84.50;;;;;;5099034;28;20357;-61
2024/01/05 11:36:04;;;;;;;;;;;8.80;84.50;;;;;;5096564;28;19931;-72
2024/01/05 11:38:32;;;;;;;;;;;8.80;84.30;;;;;;5098364;28;19931;-72
2024/01/05 11:41:15;;;;;;;;;;;8.80;84.00;;;;;;5098499;28;20458;-73
2024/01/05 11:43:49;;;;;;;;;;;8.90;83.80;;;;;;5099816;28;19924;-72
2024/01/05 11:53:49;;;;;;;;;;;9.20;83.30;;;;;;5088399;28;19927;-72
2024/01/05 11:56:25;;;;;;;;;;;9.30;83.10;;;;;;5095602;28;19924;-72
2024/01/05 11:58:58;;;;;;;;;;;9.40;83.00;;;;;;5099746;28;19924;-72
2024/01/05 12:01:31;;;;;;;;;;;9.40;82.50;;;;;;5096381;28;19981;-72
2024/01/05 12:04:04;;;;;;;;;;;9.40;82.00;;;;;;5097542;28;20371;-73
2024/01/05 12:06:37;;;;;;;;;;;9.50;82.00;;;;;;5098262;28;20394;-72
2024/01/05 12:09:12;;;;;;;;;;;9.50;81.70;;;;;;5094159;28;20027;-72
2024/01/05 12:11:45;;;;;;;;;;;9.50;81.50;;;;;;5100523;28;19924;-72
2024/01/05 12:14:28;;;;;;;;;;;9.60;81.30;;;;;;5096001;28;20278;-72
2024/01/05 12:17:12;;;;;;;;;;;9.60;80.90;;;;;;5095950;28;20383;-71
2024/01/05 12:19:46;;;;;;;;;;;9.50;80.70;;;;;;5097098;28;19931;-72
2024/01/05 12:22:20;;;;;;;;;;;9.50;80.50;;;;;;5099737;28;19932;-72
2024/01/05 12:24:55;;;;;;;;;;;9.60;80.10;;;;;;5098792;28;20311;-72
2024/01/05 12:27:35;;;;;;;;;;;9.50;79.90;;;;;;5096210;28;20401;-72
2024/01/05 12:30:09;;;;;;;;;;;9.50;80.10;;;;;;5097958;28;19977;-72
2024/01/05 12:32:44;;;;;;;;;;;9.40;80.00;;;;;;5098556;28;19924;-72
2024/01/05 12:35:18;;;;;;;;;;;9.40;79.80;;;;;;5098315;28;20605;-71
2024/01/05 12:37:52;;;;;;;;;;;9.50;80.00;;;;;;5096757;28;19927;-71
2024/01/05 12:40:28;;;;;;;;;;;9.50;79.70;;;;;;5098228;28;19976;-72
2024/01/05 12:43:02;;;;;;;;;;;9.50;79.70;;;;;;5096327;28;19924;-72
2024/01/05 12:45:35;;;;;;;;;;;9.60;79.50;;;;;;5090418;28;21317;-64
2024/01/05 12:48:10;;;;;;;;;;;9.60;79.40;;;;;;5098281;28;19967;-62
2024/01/05 12:50:43;;;;;;;;;;;9.60;79.50;;;;;;5096439;28;20370;-63
2024/01/05 12:53:16;;;;;;;;;;;9.60;79.30;;;;;;5096812;28;20386;-63
2024/01/05 12:55:52;;;;;;;;;;;9.70;79.50;;;;;;5097772;28;20018;-63
2024/01/05 12:58:25;;;;;;;;;;;9.60;79.50;;;;;;5096870;28;19924;-63
2024/01/05 13:01:03;;;;;;;;;;;9.60;79.40;;;;;;5095671;28;19960;-63
2024/01/05 13:03:36;;;;;;;;;;;9.60;79.50;;;;;;5098334;28;19932;-63
2024/01/05 13:06:09;;;;;;;;;;;9.60;79.50;;;;;;5098650;28;19951;-63
2024/01/05 13:08:36;;;;;;;;;;;9.70;79.20;;;;;;5097471;28;19924;-64
2024/01/05 13:11:11;;;;;;;;;;;9.70;79.40;;;;;;5088518;28;19930;-63
2024/01/05 13:13:44;;;;;;;;;;;9.70;79.50;;;;;;5095508;28;20015;-63
2024/01/05 13:16:17;;;;;;;;;;;9.70;79.70;;;;;;5095784;28;19959;-63
2024/01/05 13:18:50;;;;;;;;;;;9.70;79.30;;;;;;5093889;28;19981;-62
2024/01/05 13:21:24;;;;;;;;;;;9.70;79.30;;;;;;5083871;28;19999;-63
2024/01/05 13:23:58;;;;;;;;;;;9.70;79.20;;;;;;5091852;28;19928;-63
2024/01/05 13:26:33;;;;;;;;;;;9.70;79.00;;;;;;5092617;28;19934;-63
2024/01/05 13:29:06;;;;;;;;;;;9.70;79.10;;;;;;5089082;28;20895;-62
2024/01/05 13:31:39;;;;;;;;;;;9.60;79.00;;;;;;5093112;28;20344;-66
2024/01/05 13:34:12;;;;;;;;;;;9.60;79.30;;;;;;5096678;28;19931;-63
2024/01/05 13:36:39;;;;;;;;;;;9.60;79.00;;;;;;5083990;28;20306;-63
2024/01/05 13:39:13;;;;;;;;;;;9.60;79.50;;;;;;5093159;28;20374;-63
2024/01/05 13:41:48;;;;;;;;;;;9.60;79.30;;;;;;5097435;28;19970;-62
2024/01/05 13:44:23;;;;;;;;;;;9.60;79.30;;;;;;5094904;28;20010;-63
2024/01/05 13:46:56;;;;;;;;;;;9.60;79.20;;;;;;5090936;28;19934;-63
2024/01/05 13:49:30;;;;;;;;;;;9.60;78.90;;;;;;5094418;28;20032;-63
2024/01/05 13:52:04;;;;;;;;;;;9.60;78.90;;;;;;5095506;28;20290;-63
2024/01/05 13:54:37;;;;;;;;;;;9.60;78.90;;;;;;5096101;28;19947;-61
2024/01/05 13:57:12;;;;;;;;;;;9.60;78.90;;;;;;5095270;28;19959;-61
2024/01/05 13:59:45;;;;;;;;;;;9.60;79.20;;;;;;5097067;28;20436;-62
2024/01/05 14:02:19;;;;;;;;;;;9.60;79.00;;;;;;5095478;28;19927;-61
2024/01/05 14:04:52;;;;;;;;;;;9.50;78.80;;;;;;5095969;28;20363;-61
2024/01/05 14:07:32;;;;;;;;;;;9.50;79.00;;;;;;5096311;28;19924;-61
2024/01/05 14:10:05;;;;;;;;;;;9.40;78.70;;;;;;5090908;28;19936;-61
2024/01/05 14:12:40;;;;;;;;;;;9.40;78.70;;;;;;5094262;28;20383;-62
2024/01/05 14:15:14;;;;;;;;;;;9.40;78.90;;;;;;5089717;28;20007;-62
2024/01/05 14:17:47;;;;;;;;;;;9.40;78.90;;;;;;5094910;28;20392;-61
2024/01/05 14:20:20;;;;;;;;;;;9.40;79.00;;;;;;5096717;28;19951;-63
2024/01/05 14:22:53;;;;;;;;;;;9.30;79.10;;;;;;5085874;28;19931;-62
2024/01/05 14:25:26;;;;;;;;;;;9.30;79.10;;;;;;5068220;28;20443;-61
2024/01/05 14:28:01;;;;;;;;;;;9.30;79.40;;;;;;5069034;28;20311;-62
2024/01/05 14:30:34;;;;;;;;;;;9.30;79.20;;;;;;5072036;28;19970;-62
2024/01/05 14:33:08;;;;;;;;;;;9.30;79.50;;;;;;5077320;28;19946;-61
2024/01/05 14:35:41;;;;;;;;;;;9.30;79.40;;;;;;5077646;28;20014;-61
2024/01/05 14:38:14;;;;;;;;;;;9.30;79.50;;;;;;5070945;28;20394;-61
2024/01/05 14:40:47;;;;;;;;;;;9.30;79.60;;;;;;5069375;28;20383;-62
2024/01/05 14:43:22;;;;;;;;;;;9.20;79.50;;;;;;5070775;28;19932;-61
2024/01/05 14:45:55;;;;;;;;;;;9.20;79.90;;;;;;5069726;28;20011;-62
2024/01/05 14:48:28;;;;;;;;;;;9.20;80.10;;;;;;5059971;28;19932;-60
2024/01/05 14:51:02;;;;;;;;;;;9.20;80.30;;;;;;5070712;28;19967;-61
2024/01/05 14:53:36;;;;;;;;;;;9.20;80.40;;;;;;5071187;28;19924;-61
2024/01/05 14:56:12;;;;;;;;;;;9.20;80.40;;;;;;5068698;28;19932;-61
2024/01/05 14:58:47;;;;;;;;;;;9.10;80.80;;;;;;5070696;28;19929;-62
2024/01/05 15:01:20;;;;;;;;;;;9.10;80.90;;;;;;5070649;28;19924;-61
2024/01/05 15:03:53;;;;;;;;;;;9.10;81.00;;;;;;5071177;28;20033;-61
2024/01/05 15:06:26;;;;;;;;;;;9.10;81.20;;;;;;5052302;28;19927;-73
2024/01/05 15:08:59;;;;;;;;;;;9.00;81.20;;;;;;5071984;28;20273;-73
2024/01/05 15:11:32;;;;;;;;;;;9.00;81.50;;;;;;5071682;28;20018;-73
2024/01/05 15:14:08;;;;;;;;;;;9.00;81.60;;;;;;5071670;28;19925;-73
2024/01/05 15:16:41;;;;;;;;;;;8.90;81.50;;;;;;5070489;28;20607;-74
2024/01/05 15:19:14;;;;;;;;;;;8.90;81.90;;;;;;5068053;28;19928;-73
2024/01/05 15:21:55;;;;;;;;;;;8.90;82.00;;;;;;5069087;28;20079;-73
2024/01/05 15:24:28;;;;;;;;;;;8.90;82.10;;;;;;5089007;28;19931;-73
2024/01/05 15:26:55;;;;;;;;;;;8.90;82.10;;;;;;5094448;28;19928;-73
2024/01/05 15:29:30;;;;;;;;;;;8.90;82.40;;;;;;5095999;28;19986;-74